sensor_id;sensor_type;location;lat;lon;timestamp;temperature;humidity
1379;DHT22;683;48.738;9.226;2022-12-10T00:01:45;1.40;99.90
1379;DHT22;683;48.738;9.226;2022-12-10T00:04:13;1.50;99.90
1379;DHT22;683;48.738;9.226;2022-12-10T00:06:42;1.40;99.90
1379;DHT22;683;48.738;9.226;2022-12-10T00:09:11;1.40;99.90
1379;DHT22;683;48.738;9.226;2022-12-10T00:11:39;1.40;99.90
1379;DHT22;683;48.738;9.226;2022-12-10T00:14:06;1.40;99.90
1379;DHT22;683;48.738;9.226;2022-12-10T00:16:34;1.40;99.90
1379;DHT22;683;48.738;9.226;2022-12-10T00:19:03;1.40;99.90
1379;DHT22;683;48.738;9.226;2022-12-10T00:21:32;1.40;99.90
1379;DHT22;683;48.738;9.226;2022-12-10T00:24:00;1.40;99.90
1379;DHT22;683;48.738;9.226;2022-12-10T00:26:30;1.40;99.90
1379;DHT22;683;48.738;9.226;2022-12-10T00:28:57;1.40;99.90
1379;DHT22;683;48.738;9.226;2022-12-10T00:31:26;1.40;99.90
1379;DHT22;683;48.738;9.226;2022-12-10T00:33:54;1.40;99.90
1379;DHT22;683;48.738;9.226;2022-12-10T00:36:28;1.40;99.90
1379;DHT22;683;48.738;9.226;2022-12-10T00:38:56;1.30;99.90
1379;DHT22;683;48.738;9.226;2022-12-10T00:41:27;1.30;99.90
1379;DHT22;683;48.738;9.226;2022-12-10T00:43:55;1.30;99.90
1379;DHT22;683;48.738;9.226;2022-12-10T00:46:22;1.20;99.90
1379;DHT22;683;48.738;9.226;2022-12-10T00:48:49;1.20;99.90
1379;DHT22;683;48.738;9.226;2022-12-10T00:51:19;1.20;99.90
1379;DHT22;683;48.738;9.226;2022-12-10T00:53:49;1.20;99.90
1379;DHT22;683;48.738;9.226;2022-12-10T00:56:20;1.20;99.90
1379;DHT22;683;48.738;9.226;2022-12-10T00:58:48;1.20;99.90
1379;DHT22;683;48.738;9.226;2022-12-10T01:01:21;1.20;99.90
1379;DHT22;683;48.738;9.226;2022-12-10T01:03:50;1.20;99.90
1379;DHT22;683;48.738;9.226;2022-12-10T01:06:19;1.20;99.90
1379;DHT22;683;48.738;9.226;2022-12-10T01:08:50;1.20;99.90
1379;DHT22;683;48.738;9.226;2022-12-10T01:11:19;1.20;99.90
1379;DHT22;683;48.738;9.226;2022-12-10T01:13:47;1.20;99.90
1379;DHT22;683;48.738;9.226;2022-12-10T01:16:17;1.20;99.90
1379;DHT22;683;48.738;9.226;2022-12-10T01:18:45;1.20;99.90
1379;DHT22;683;48.738;9.226;2022-12-10T01:21:18;1.10;99.90
1379;DHT22;683;48.738;9.226;2022-12-10T01:23:48;1.20;99.90
1379;DHT22;683;48.738;9.226;2022-12-10T01:26:17;1.10;99.90
1379;DHT22;683;48.738;9.226;2022-12-10T01:28:45;1.10;99.90
1379;DHT22;683;48.738;9.226;2022-12-10T01:31:17;1.10;99.90
1379;DHT22;683;48.738;9.226;2022-12-10T01:33:45;1.10;99.90
1379;DHT22;683;48.738;9.226;2022-12-10T01:36:14;1.10;99.90
1379;DHT22;683;48.738;9.226;2022-12-10T01:38:42;1.10;99.90
1379;DHT22;683;48.738;9.226;2022-12-10T01:41:15;1.20;99.90
1379;DHT22;683;48.738;9.226;2022-12-10T01:43:57;1.10;99.90
1379;DHT22;683;48.738;9.226;2022-12-10T01:46:26;1.10;99.90
1379;DHT22;683;48.738;9.226;2022-12-10T01:48:56;1.10;99.90
1379;DHT22;683;48.738;9.226;2022-12-10T01:51:25;1.20;99.90
1379;DHT22;683;48.738;9.226;2022-12-10T01:53:52;1.20;99.90
1379;DHT22;683;48.738;9.226;2022-12-10T01:56:22;1.20;99.90
1379;DHT22;683;48.738;9.226;2022-12-10T01:58:53;1.20;99.90
1379;DHT22;683;48.738;9.226;2022-12-10T02:01:27;1.20;99.90
1379;DHT22;683;48.738;9.226;2022-12-10T02:04:11;1.10;99.90
1379;DHT22;683;48.738;9.226;2022-12-10T02:06:48;1.10;99.90
1379;DHT22;683;48.738;9.226;2022-12-10T02:09:23;1.10;99.90
1379;DHT22;683;48.738;9.226;2022-12-10T02:12:01;1.10;99.90
1379;DHT22;683;48.738;9.226;2022-12-10T02:14:41;1.10;99.90
1379;DHT22;683;48.738;9.226;2022-12-10T02:17:14;1.10;99.90
1379;DHT22;683;48.738;9.226;2022-12-10T02:19:56;1.10;99.90
1379;DHT22;683;48.738;9.226;2022-12-10T02:22:28;1.10;99.90
1379;DHT22;683;48.738;9.226;2022-12-10T02:24:58;1.10;99.90
1379;DHT22;683;48.738;9.226;2022-12-10T02:27:34;1.10;99.90
1379;DHT22;683;48.738;9.226;2022-12-10T02:30:07;1.10;99.90
1379;DHT22;683;48.738;9.226;2022-12-10T02:32:37;1.10;99.90
1379;DHT22;683;48.738;9.226;2022-12-10T02:35:10;1.10;99.90
1379;DHT22;683;48.738;9.226;2022-12-10T02:37:44;1.10;99.90
1379;DHT22;683;48.738;9.226;2022-12-10T02:40:17;1.10;99.90
1379;DHT22;683;48.738;9.226;2022-12-10T02:42:50;1.10;99.90
1379;DHT22;683;48.738;9.226;2022-12-10T02:45:23;1.10;99.90
1379;DHT22;683;48.738;9.226;2022-12-10T02:47:54;1.00;99.90
1379;DHT22;683;48.738;9.226;2022-12-10T02:50:24;1.10;99.90
1379;DHT22;683;48.738;9.226;2022-12-10T02:52:52;1.10;99.90
1379;DHT22;683;48.738;9.226;2022-12-10T02:55:19;1.00;99.90
1379;DHT22;683;48.738;9.226;2022-12-10T02:58:01;1.10;99.90
1379;DHT22;683;48.738;9.226;2022-12-10T03:00:32;1.10;99.90
1379;DHT22;683;48.738;9.226;2022-12-10T03:03:25;1.10;99.90
1379;DHT22;683;48.738;9.226;2022-12-10T03:05:59;1.00;99.90
1379;DHT22;683;48.738;9.226;2022-12-10T03:08:31;1.10;99.90
1379;DHT22;683;48.738;9.226;2022-12-10T03:11:07;1.10;99.90
1379;DHT22;683;48.738;9.226;2022-12-10T03:13:39;1.10;99.90
1379;DHT22;683;48.738;9.226;2022-12-10T03:16:10;1.10;99.90
1379;DHT22;683;48.738;9.226;2022-12-10T03:18:39;1.20;99.90
1379;DHT22;683;48.738;9.226;2022-12-10T03:21:07;1.20;99.90
1379;DHT22;683;48.738;9.226;2022-12-10T03:23:38;1.20;99.90
1379;DHT22;683;48.738;9.226;2022-12-10T03:26:08;1.20;99.90
1379;DHT22;683;48.738;9.226;2022-12-10T03:28:45;1.20;99.90
1379;DHT22;683;48.738;9.226;2022-12-10T03:31:17;1.10;99.90
1379;DHT22;683;48.738;9.226;2022-12-10T03:33:46;1.10;99.90
1379;DHT22;683;48.738;9.226;2022-12-10T03:36:15;1.10;99.90
1379;DHT22;683;48.738;9.226;2022-12-10T03:38:43;1.10;99.90
1379;DHT22;683;48.738;9.226;2022-12-10T03:41:10;1.10;99.90
1379;DHT22;683;48.738;9.226;2022-12-10T03:43:50;1.00;99.90
1379;DHT22;683;48.738;9.226;2022-12-10T03:46:19;1.00;99.90
1379;DHT22;683;48.738;9.226;2022-12-10T03:48:46;1.00;99.90
1379;DHT22;683;48.738;9.226;2022-12-10T03:51:14;0.90;99.90
1379;DHT22;683;48.738;9.226;2022-12-10T03:53:42;1.00;99.90
1379;DHT22;683;48.738;9.226;2022-12-10T03:56:09;1.00;99.90
1379;DHT22;683;48.738;9.226;2022-12-10T03:58:36;1.00;99.90
1379;DHT22;683;48.738;9.226;2022-12-10T04:01:04;1.00;99.90
1379;DHT22;683;48.738;9.226;2022-12-10T04:03:36;1.00;99.90
1379;DHT22;683;48.738;9.226;2022-12-10T04:06:05;1.00;99.90
1379;DHT22;683;48.738;9.226;2022-12-10T04:08:32;1.00;99.90
1379;DHT22;683;48.738;9.226;2022-12-10T04:11:03;1.00;99.90
1379;DHT22;683;48.738;9.226;2022-12-10T04:13:32;1.00;99.90
1379;DHT22;683;48.738;9.226;2022-12-10T04:16:17;1.10;99.90
1379;DHT22;683;48.738;9.226;2022-12-10T04:18:56;1.10;99.90
1379;DHT22;683;48.738;9.226;2022-12-10T04:21:24;1.10;99.90
1379;DHT22;683;48.738;9.226;2022-12-10T04:24:09;1.10;99.90
1379;DHT22;683;48.738;9.226;2022-12-10T04:26:55;1.10;99.90
1379;DHT22;683;48.738;9.226;2022-12-10T04:29:24;1.10;99.90
1379;DHT22;683;48.738;9.226;2022-12-10T04:31:52;1.10;99.90
1379;DHT22;683;48.738;9.226;2022-12-10T04:34:21;1.10;99.90
1379;DHT22;683;48.738;9.226;2022-12-10T04:36:48;1.10;99.90
1379;DHT22;683;48.738;9.226;2022-12-10T04:39:16;1.10;99.90
1379;DHT22;683;48.738;9.226;2022-12-10T04:41:46;1.10;99.90
1379;DHT22;683;48.738;9.226;2022-12-10T04:44:13;1.10;99.90
1379;DHT22;683;48.738;9.226;2022-12-10T04:46:41;1.00;99.90
1379;DHT22;683;48.738;9.226;2022-12-10T04:49:08;1.00;99.90
1379;DHT22;683;48.738;9.226;2022-12-10T04:51:37;1.10;99.90
1379;DHT22;683;48.738;9.226;2022-12-10T04:54:05;1.10;99.90
1379;DHT22;683;48.738;9.226;2022-12-10T04:56:33;1.00;99.90
1379;DHT22;683;48.738;9.226;2022-12-10T04:59:01;1.10;99.90
1379;DHT22;683;48.738;9.226;2022-12-10T05:01:29;1.10;99.90
1379;DHT22;683;48.738;9.226;2022-12-10T05:03:58;1.10;99.90
1379;DHT22;683;48.738;9.226;2022-12-10T05:06:26;1.10;99.90
1379;DHT22;683;48.738;9.226;2022-12-10T05:08:56;1.10;99.90
1379;DHT22;683;48.738;9.226;2022-12-10T05:11:24;1.10;99.90
1379;DHT22;683;48.738;9.226;2022-12-10T05:13:53;1.00;99.90
1379;DHT22;683;48.738;9.226;2022-12-10T05:16:21;1.00;99.90
1379;DHT22;683;48.738;9.226;2022-12-10T05:18:49;1.00;99.90
1379;DHT22;683;48.738;9.226;2022-12-10T05:21:18;1.00;99.90
1379;DHT22;683;48.738;9.226;2022-12-10T05:23:46;1.00;99.90
1379;DHT22;683;48.738;9.226;2022-12-10T05:26:17;1.00;99.90
1379;DHT22;683;48.738;9.226;2022-12-10T05:28:46;1.00;99.90
1379;DHT22;683;48.738;9.226;2022-12-10T05:31:16;1.00;99.90
1379;DHT22;683;48.738;9.226;2022-12-10T05:33:43;0.90;99.90
1379;DHT22;683;48.738;9.226;2022-12-10T05:36:11;0.90;99.90
1379;DHT22;683;48.738;9.226;2022-12-10T05:38:40;0.90;99.90
1379;DHT22;683;48.738;9.226;2022-12-10T05:41:09;0.80;99.90
1379;DHT22;683;48.738;9.226;2022-12-10T05:43:40;0.70;99.90
1379;DHT22;683;48.738;9.226;2022-12-10T05:46:11;0.70;99.90
1379;DHT22;683;48.738;9.226;2022-12-10T05:48:38;0.70;99.90
1379;DHT22;683;48.738;9.226;2022-12-10T05:51:07;0.70;99.90
1379;DHT22;683;48.738;9.226;2022-12-10T05:53:35;0.70;99.90
1379;DHT22;683;48.738;9.226;2022-12-10T05:56:04;0.70;99.90
1379;DHT22;683;48.738;9.226;2022-12-10T05:58:31;0.60;99.90
1379;DHT22;683;48.738;9.226;2022-12-10T06:01:00;0.60;99.90
1379;DHT22;683;48.738;9.226;2022-12-10T06:03:32;0.60;99.90
1379;DHT22;683;48.738;9.226;2022-12-10T06:05:59;0.60;99.90
1379;DHT22;683;48.738;9.226;2022-12-10T06:08:26;0.50;99.90
1379;DHT22;683;48.738;9.226;2022-12-10T06:10:53;0.50;99.90
1379;DHT22;683;48.738;9.226;2022-12-10T06:13:23;0.50;99.90
1379;DHT22;683;48.738;9.226;2022-12-10T06:15:50;0.50;99.90
1379;DHT22;683;48.738;9.226;2022-12-10T06:18:19;0.50;99.90
1379;DHT22;683;48.738;9.226;2022-12-10T06:20:47;0.50;99.90
1379;DHT22;683;48.738;9.226;2022-12-10T06:23:14;0.50;99.90
1379;DHT22;683;48.738;9.226;2022-12-10T06:25:41;0.50;99.90
1379;DHT22;683;48.738;9.226;2022-12-10T06:28:09;0.50;99.90
1379;DHT22;683;48.738;9.226;2022-12-10T06:30:36;0.50;99.90
1379;DHT22;683;48.738;9.226;2022-12-10T06:33:03;0.40;99.90
1379;DHT22;683;48.738;9.226;2022-12-10T06:35:32;0.40;99.90
1379;DHT22;683;48.738;9.226;2022-12-10T06:37:59;0.40;99.90
1379;DHT22;683;48.738;9.226;2022-12-10T06:40:31;0.40;99.90
1379;DHT22;683;48.738;9.226;2022-12-10T06:43:06;0.40;99.90
1379;DHT22;683;48.738;9.226;2022-12-10T06:45:45;0.50;99.90
1379;DHT22;683;48.738;9.226;2022-12-10T06:48:13;0.40;99.90
1379;DHT22;683;48.738;9.226;2022-12-10T06:50:42;0.40;99.90
1379;DHT22;683;48.738;9.226;2022-12-10T06:53:10;0.40;99.90
1379;DHT22;683;48.738;9.226;2022-12-10T06:55:37;0.40;99.90
1379;DHT22;683;48.738;9.226;2022-12-10T06:58:04;0.40;99.90
1379;DHT22;683;48.738;9.226;2022-12-10T07:00:32;0.30;99.90
1379;DHT22;683;48.738;9.226;2022-12-10T07:02:59;0.30;99.90
1379;DHT22;683;48.738;9.226;2022-12-10T07:05:26;0.30;99.90
1379;DHT22;683;48.738;9.226;2022-12-10T07:07:55;0.30;99.90
1379;DHT22;683;48.738;9.226;2022-12-10T07:10:22;0.30;99.90
1379;DHT22;683;48.738;9.226;2022-12-10T07:12:49;0.30;99.90
1379;DHT22;683;48.738;9.226;2022-12-10T07:15:16;0.30;99.90
1379;DHT22;683;48.738;9.226;2022-12-10T07:17:44;0.20;99.90
1379;DHT22;683;48.738;9.226;2022-12-10T07:20:11;0.30;99.90
1379;DHT22;683;48.738;9.226;2022-12-10T07:22:38;0.30;99.90
1379;DHT22;683;48.738;9.226;2022-12-10T07:25:08;0.30;99.90
1379;DHT22;683;48.738;9.226;2022-12-10T07:27:35;0.30;99.90
1379;DHT22;683;48.738;9.226;2022-12-10T07:30:03;0.30;99.90
1379;DHT22;683;48.738;9.226;2022-12-10T07:32:30;0.30;99.90
1379;DHT22;683;48.738;9.226;2022-12-10T07:34:58;0.30;99.90
1379;DHT22;683;48.738;9.226;2022-12-10T07:37:25;0.30;99.90
1379;DHT22;683;48.738;9.226;2022-12-10T07:39:52;0.30;99.90
1379;DHT22;683;48.738;9.226;2022-12-10T07:42:21;0.40;99.90
1379;DHT22;683;48.738;9.226;2022-12-10T07:44:48;0.40;99.90
1379;DHT22;683;48.738;9.226;2022-12-10T07:47:15;0.40;99.90
1379;DHT22;683;48.738;9.226;2022-12-10T07:49:43;0.40;99.90
1379;DHT22;683;48.738;9.226;2022-12-10T07:52:10;0.40;99.90
1379;DHT22;683;48.738;9.226;2022-12-10T07:54:37;0.40;99.90
1379;DHT22;683;48.738;9.226;2022-12-10T07:57:04;0.40;99.90
1379;DHT22;683;48.738;9.226;2022-12-10T07:59:33;0.40;99.90
1379;DHT22;683;48.738;9.226;2022-12-10T08:02:00;0.40;99.90
1379;DHT22;683;48.738;9.226;2022-12-10T08:04:28;0.40;99.90
1379;DHT22;683;48.738;9.226;2022-12-10T08:06:55;0.50;99.90
1379;DHT22;683;48.738;9.226;2022-12-10T08:09:23;0.50;99.90
1379;DHT22;683;48.738;9.226;2022-12-10T08:11:50;0.50;99.90
1379;DHT22;683;48.738;9.226;2022-12-10T08:14:19;0.50;99.90
1379;DHT22;683;48.738;9.226;2022-12-10T08:16:48;0.50;99.90
1379;DHT22;683;48.738;9.226;2022-12-10T08:19:15;0.60;99.90
1379;DHT22;683;48.738;9.226;2022-12-10T08:21:42;0.60;99.90
1379;DHT22;683;48.738;9.226;2022-12-10T08:24:10;0.60;99.90
1379;DHT22;683;48.738;9.226;2022-12-10T08:26:37;0.70;99.90
1379;DHT22;683;48.738;9.226;2022-12-10T08:29:04;0.70;99.90
1379;DHT22;683;48.738;9.226;2022-12-10T08:31:31;0.70;99.90
1379;DHT22;683;48.738;9.226;2022-12-10T08:34:00;0.70;99.90
1379;DHT22;683;48.738;9.226;2022-12-10T08:36:27;0.70;99.90
1379;DHT22;683;48.738;9.226;2022-12-10T08:38:56;0.70;99.90
1379;DHT22;683;48.738;9.226;2022-12-10T08:41:23;0.70;99.90
1379;DHT22;683;48.738;9.226;2022-12-10T08:43:52;0.70;99.90
1379;DHT22;683;48.738;9.226;2022-12-10T08:46:21;0.70;99.90
1379;DHT22;683;48.738;9.226;2022-12-10T08:48:48;0.70;99.90
1379;DHT22;683;48.738;9.226;2022-12-10T08:51:18;0.80;99.90
1379;DHT22;683;48.738;9.226;2022-12-10T08:53:46;0.80;99.90
1379;DHT22;683;48.738;9.226;2022-12-10T08:56:13;0.90;99.90
1379;DHT22;683;48.738;9.226;2022-12-10T08:58:41;0.90;99.90
1379;DHT22;683;48.738;9.226;2022-12-10T09:01:09;1.00;99.90
1379;DHT22;683;48.738;9.226;2022-12-10T09:03:37;1.00;99.90
1379;DHT22;683;48.738;9.226;2022-12-10T09:06:07;1.10;99.90
1379;DHT22;683;48.738;9.226;2022-12-10T09:08:36;1.10;99.90
1379;DHT22;683;48.738;9.226;2022-12-10T09:11:05;1.10;99.90
1379;DHT22;683;48.738;9.226;2022-12-10T09:13:32;1.10;99.90
1379;DHT22;683;48.738;9.226;2022-12-10T09:15:59;1.10;99.90
1379;DHT22;683;48.738;9.226;2022-12-10T09:18:27;1.10;99.90
1379;DHT22;683;48.738;9.226;2022-12-10T09:20:54;1.20;99.90
1379;DHT22;683;48.738;9.226;2022-12-10T09:23:21;1.20;99.90
1379;DHT22;683;48.738;9.226;2022-12-10T09:25:50;1.20;99.90
1379;DHT22;683;48.738;9.226;2022-12-10T09:28:17;1.20;99.90
1379;DHT22;683;48.738;9.226;2022-12-10T09:30:44;1.20;99.90
1379;DHT22;683;48.738;9.226;2022-12-10T09:33:11;1.20;99.90
1379;DHT22;683;48.738;9.226;2022-12-10T09:35:40;1.20;99.90
1379;DHT22;683;48.738;9.226;2022-12-10T09:38:10;1.20;99.90
1379;DHT22;683;48.738;9.226;2022-12-10T09:40:43;1.20;99.90
1379;DHT22;683;48.738;9.226;2022-12-10T09:43:19;1.20;99.90
1379;DHT22;683;48.738;9.226;2022-12-10T09:45:59;1.20;99.90
1379;DHT22;683;48.738;9.226;2022-12-10T09:48:32;1.20;99.90
1379;DHT22;683;48.738;9.226;2022-12-10T09:51:07;1.20;99.90
1379;DHT22;683;48.738;9.226;2022-12-10T09:53:36;1.20;99.90
1379;DHT22;683;48.738;9.226;2022-12-10T09:56:05;1.30;99.90
1379;DHT22;683;48.738;9.226;2022-12-10T09:58:36;1.30;99.90
1379;DHT22;683;48.738;9.226;2022-12-10T10:01:06;1.30;99.90
1379;DHT22;683;48.738;9.226;2022-12-10T10:03:40;1.30;99.90
1379;DHT22;683;48.738;9.226;2022-12-10T10:06:10;1.30;99.90
1379;DHT22;683;48.738;9.226;2022-12-10T10:08:41;1.30;99.90
1379;DHT22;683;48.738;9.226;2022-12-10T10:11:11;1.30;99.90
1379;DHT22;683;48.738;9.226;2022-12-10T10:13:44;1.40;99.90
1379;DHT22;683;48.738;9.226;2022-12-10T10:16:23;1.40;99.90
1379;DHT22;683;48.738;9.226;2022-12-10T10:18:56;1.40;99.90
1379;DHT22;683;48.738;9.226;2022-12-10T10:21:26;1.40;99.90
1379;DHT22;683;48.738;9.226;2022-12-10T10:23:55;1.40;99.90
1379;DHT22;683;48.738;9.226;2022-12-10T10:26:24;1.50;99.90
1379;DHT22;683;48.738;9.226;2022-12-10T10:28:57;1.50;99.90
1379;DHT22;683;48.738;9.226;2022-12-10T10:31:27;1.50;99.90
1379;DHT22;683;48.738;9.226;2022-12-10T10:33:56;1.50;99.90
1379;DHT22;683;48.738;9.226;2022-12-10T10:36:26;1.60;99.90
1379;DHT22;683;48.738;9.226;2022-12-10T10:38:54;1.60;99.90
1379;DHT22;683;48.738;9.226;2022-12-10T10:41:23;1.60;99.90
1379;DHT22;683;48.738;9.226;2022-12-10T10:43:59;1.60;99.90
1379;DHT22;683;48.738;9.226;2022-12-10T10:46:29;1.60;99.90
1379;DHT22;683;48.738;9.226;2022-12-10T10:49:14;1.70;99.90
1379;DHT22;683;48.738;9.226;2022-12-10T10:51:43;1.70;99.90
1379;DHT22;683;48.738;9.226;2022-12-10T10:54:11;1.90;99.90
1379;DHT22;683;48.738;9.226;2022-12-10T10:56:40;1.90;99.90
1379;DHT22;683;48.738;9.226;2022-12-10T10:59:28;1.90;99.90
1379;DHT22;683;48.738;9.226;2022-12-10T11:02:03;1.90;99.90
1379;DHT22;683;48.738;9.226;2022-12-10T11:04:37;1.80;99.90
1379;DHT22;683;48.738;9.226;2022-12-10T11:07:19;1.80;99.90
1379;DHT22;683;48.738;9.226;2022-12-10T11:09:48;1.70;99.90
1379;DHT22;683;48.738;9.226;2022-12-10T11:12:34;1.70;99.90
1379;DHT22;683;48.738;9.226;2022-12-10T11:17:56;1.80;99.90
1379;DHT22;683;48.738;9.226;2022-12-10T11:20:26;1.80;99.90
1379;DHT22;683;48.738;9.226;2022-12-10T11:22:55;1.80;99.90
1379;DHT22;683;48.738;9.226;2022-12-10T11:25:34;1.80;99.90
1379;DHT22;683;48.738;9.226;2022-12-10T11:28:15;1.70;99.90
1379;DHT22;683;48.738;9.226;2022-12-10T11:30:51;1.70;99.90
1379;DHT22;683;48.738;9.226;2022-12-10T11:33:24;1.80;99.90
1379;DHT22;683;48.738;9.226;2022-12-10T11:35:59;1.70;99.90
1379;DHT22;683;48.738;9.226;2022-12-10T11:38:32;1.60;99.90
1379;DHT22;683;48.738;9.226;2022-12-10T11:41:10;1.60;99.90
1379;DHT22;683;48.738;9.226;2022-12-10T11:44:03;1.70;99.90
1379;DHT22;683;48.738;9.226;2022-12-10T11:46:50;1.80;99.90
1379;DHT22;683;48.738;9.226;2022-12-10T11:49:25;1.90;99.90
1379;DHT22;683;48.738;9.226;2022-12-10T11:51:59;1.80;99.90
1379;DHT22;683;48.738;9.226;2022-12-10T11:57:34;1.70;99.90
1379;DHT22;683;48.738;9.226;2022-12-10T12:00:15;1.80;99.90
1379;DHT22;683;48.738;9.226;2022-12-10T12:03:00;1.90;99.90
1379;DHT22;683;48.738;9.226;2022-12-10T12:05:48;1.90;99.90
1379;DHT22;683;48.738;9.226;2022-12-10T12:08:23;1.90;99.90
1379;DHT22;683;48.738;9.226;2022-12-10T12:11:10;1.90;99.90
1379;DHT22;683;48.738;9.226;2022-12-10T12:13:47;1.90;99.90
1379;DHT22;683;48.738;9.226;2022-12-10T12:16:20;1.90;99.90
1379;DHT22;683;48.738;9.226;2022-12-10T12:18:55;2.00;99.90
1379;DHT22;683;48.738;9.226;2022-12-10T12:21:26;2.00;99.90
1379;DHT22;683;48.738;9.226;2022-12-10T12:23:56;2.00;99.90
1379;DHT22;683;48.738;9.226;2022-12-10T12:26:29;2.10;99.90
1379;DHT22;683;48.738;9.226;2022-12-10T12:29:05;2.00;99.90
1379;DHT22;683;48.738;9.226;2022-12-10T12:31:38;2.00;99.90
1379;DHT22;683;48.738;9.226;2022-12-10T12:34:15;2.10;99.90
1379;DHT22;683;48.738;9.226;2022-12-10T12:36:45;2.00;99.90
1379;DHT22;683;48.738;9.226;2022-12-10T12:39:19;2.10;99.90
1379;DHT22;683;48.738;9.226;2022-12-10T12:41:55;2.10;99.90
1379;DHT22;683;48.738;9.226;2022-12-10T12:44:28;2.10;99.90
1379;DHT22;683;48.738;9.226;2022-12-10T12:47:01;2.00;99.90
1379;DHT22;683;48.738;9.226;2022-12-10T12:49:34;2.00;99.90
1379;DHT22;683;48.738;9.226;2022-12-10T12:52:10;2.00;99.90
1379;DHT22;683;48.738;9.226;2022-12-10T12:54:43;2.10;99.90
1379;DHT22;683;48.738;9.226;2022-12-10T12:57:14;2.10;99.90
1379;DHT22;683;48.738;9.226;2022-12-10T12:59:54;2.10;99.90
1379;DHT22;683;48.738;9.226;2022-12-10T13:02:40;2.00;99.90
1379;DHT22;683;48.738;9.226;2022-12-10T13:05:27;2.00;99.90
1379;DHT22;683;48.738;9.226;2022-12-10T13:08:15;2.00;99.90
1379;DHT22;683;48.738;9.226;2022-12-10T13:10:52;2.00;99.90
1379;DHT22;683;48.738;9.226;2022-12-10T13:13:28;2.10;99.90
1379;DHT22;683;48.738;9.226;2022-12-10T13:16:36;2.00;99.90
1379;DHT22;683;48.738;9.226;2022-12-10T13:19:29;1.90;99.90
1379;DHT22;683;48.738;9.226;2022-12-10T13:22:09;2.00;99.90
1379;DHT22;683;48.738;9.226;2022-12-10T13:27:55;2.00;99.90
1379;DHT22;683;48.738;9.226;2022-12-10T13:30:35;2.00;99.90
1379;DHT22;683;48.738;9.226;2022-12-10T13:33:16;1.90;99.90
1379;DHT22;683;48.738;9.226;2022-12-10T13:35:56;1.90;99.90
1379;DHT22;683;48.738;9.226;2022-12-10T13:38:27;1.80;99.90
1379;DHT22;683;48.738;9.226;2022-12-10T13:40:59;1.70;99.90
1379;DHT22;683;48.738;9.226;2022-12-10T13:43:56;1.70;99.90
1379;DHT22;683;48.738;9.226;2022-12-10T13:46:59;1.60;99.90
1379;DHT22;683;48.738;9.226;2022-12-10T13:49:27;1.60;99.90
1379;DHT22;683;48.738;9.226;2022-12-10T13:51:58;1.60;99.90
1379;DHT22;683;48.738;9.226;2022-12-10T13:54:56;1.60;99.90
1379;DHT22;683;48.738;9.226;2022-12-10T13:57:50;1.60;99.90
1379;DHT22;683;48.738;9.226;2022-12-10T14:00:22;1.50;99.90
1379;DHT22;683;48.738;9.226;2022-12-10T14:03:09;1.50;99.90
1379;DHT22;683;48.738;9.226;2022-12-10T14:05:54;1.50;99.90
1379;DHT22;683;48.738;9.226;2022-12-10T14:08:27;1.40;99.90
1379;DHT22;683;48.738;9.226;2022-12-10T14:10:58;1.30;99.90
1379;DHT22;683;48.738;9.226;2022-12-10T14:13:33;1.20;99.90
1379;DHT22;683;48.738;9.226;2022-12-10T14:16:03;1.10;99.90
1379;DHT22;683;48.738;9.226;2022-12-10T14:18:32;1.00;99.90
1379;DHT22;683;48.738;9.226;2022-12-10T14:21:05;0.90;99.90
1379;DHT22;683;48.738;9.226;2022-12-10T14:23:34;0.80;99.90
1379;DHT22;683;48.738;9.226;2022-12-10T14:26:06;0.80;99.90
1379;DHT22;683;48.738;9.226;2022-12-10T14:28:39;0.80;99.90
1379;DHT22;683;48.738;9.226;2022-12-10T14:31:14;0.80;99.90
1379;DHT22;683;48.738;9.226;2022-12-10T14:33:44;0.70;99.90
1379;DHT22;683;48.738;9.226;2022-12-10T14:36:17;0.70;99.90
1379;DHT22;683;48.738;9.226;2022-12-10T14:38:46;0.70;99.90
1379;DHT22;683;48.738;9.226;2022-12-10T14:41:19;0.70;99.90
1379;DHT22;683;48.738;9.226;2022-12-10T14:43:48;0.70;99.90
1379;DHT22;683;48.738;9.226;2022-12-10T14:46:22;0.70;99.90
1379;DHT22;683;48.738;9.226;2022-12-10T14:48:50;0.70;99.90
1379;DHT22;683;48.738;9.226;2022-12-10T14:51:20;0.60;99.90
1379;DHT22;683;48.738;9.226;2022-12-10T14:53:48;0.70;99.90
1379;DHT22;683;48.738;9.226;2022-12-10T14:56:21;0.60;99.90
1379;DHT22;683;48.738;9.226;2022-12-10T14:58:54;0.60;99.90
1379;DHT22;683;48.738;9.226;2022-12-10T15:01:27;0.50;99.90
1379;DHT22;683;48.738;9.226;2022-12-10T15:03:57;0.50;99.90
1379;DHT22;683;48.738;9.226;2022-12-10T15:06:26;0.40;99.90
1379;DHT22;683;48.738;9.226;2022-12-10T15:08:55;0.40;99.90
1379;DHT22;683;48.738;9.226;2022-12-10T15:11:26;0.40;99.90
1379;DHT22;683;48.738;9.226;2022-12-10T15:13:57;0.40;99.90
1379;DHT22;683;48.738;9.226;2022-12-10T15:16:31;0.40;99.90
1379;DHT22;683;48.738;9.226;2022-12-10T15:19:23;0.30;99.90
1379;DHT22;683;48.738;9.226;2022-12-10T15:21:56;0.30;99.90
1379;DHT22;683;48.738;9.226;2022-12-10T15:24:28;0.30;99.90
1379;DHT22;683;48.738;9.226;2022-12-10T15:26:56;0.20;99.90
1379;DHT22;683;48.738;9.226;2022-12-10T15:29:33;0.20;99.90
1379;DHT22;683;48.738;9.226;2022-12-10T15:32:04;0.20;99.90
1379;DHT22;683;48.738;9.226;2022-12-10T15:34:39;0.20;99.90
1379;DHT22;683;48.738;9.226;2022-12-10T15:37:16;0.20;99.90
1379;DHT22;683;48.738;9.226;2022-12-10T15:39:47;0.20;99.90
1379;DHT22;683;48.738;9.226;2022-12-10T15:42:36;0.10;99.90
1379;DHT22;683;48.738;9.226;2022-12-10T15:45:15;0.10;99.90
1379;DHT22;683;48.738;9.226;2022-12-10T15:47:44;0.20;99.90
1379;DHT22;683;48.738;9.226;2022-12-10T15:50:11;0.20;99.90
1379;DHT22;683;48.738;9.226;2022-12-10T15:52:39;0.30;99.90
1379;DHT22;683;48.738;9.226;2022-12-10T15:55:06;0.20;99.90
1379;DHT22;683;48.738;9.226;2022-12-10T15:57:38;0.30;99.90
1379;DHT22;683;48.738;9.226;2022-12-10T16:00:16;0.30;99.90
1379;DHT22;683;48.738;9.226;2022-12-10T16:02:47;0.20;99.90
1379;DHT22;683;48.738;9.226;2022-12-10T16:05:16;0.20;99.90
1379;DHT22;683;48.738;9.226;2022-12-10T16:07:45;0.10;99.90
1379;DHT22;683;48.738;9.226;2022-12-10T16:10:16;0.10;99.90
1379;DHT22;683;48.738;9.226;2022-12-10T16:12:47;0.10;99.90
1379;DHT22;683;48.738;9.226;2022-12-10T16:15:18;0.10;99.90
1379;DHT22;683;48.738;9.226;2022-12-10T16:17:49;0.10;99.90
1379;DHT22;683;48.738;9.226;2022-12-10T16:20:22;0.10;99.90
1379;DHT22;683;48.738;9.226;2022-12-10T16:22:51;0.10;99.90
1379;DHT22;683;48.738;9.226;2022-12-10T16:25:19;0.00;99.90
1379;DHT22;683;48.738;9.226;2022-12-10T16:27:48;0.10;99.90
1379;DHT22;683;48.738;9.226;2022-12-10T16:30:18;0.10;99.90
1379;DHT22;683;48.738;9.226;2022-12-10T16:32:49;0.10;99.90
1379;DHT22;683;48.738;9.226;2022-12-10T16:35:18;0.00;99.90
1379;DHT22;683;48.738;9.226;2022-12-10T16:37:46;0.00;99.90
1379;DHT22;683;48.738;9.226;2022-12-10T16:40:15;0.00;99.90
1379;DHT22;683;48.738;9.226;2022-12-10T16:42:43;0.00;99.90
1379;DHT22;683;48.738;9.226;2022-12-10T16:45:18;0.00;99.90
1379;DHT22;683;48.738;9.226;2022-12-10T16:47:46;0.00;99.90
1379;DHT22;683;48.738;9.226;2022-12-10T16:50:15;0.00;99.90
1379;DHT22;683;48.738;9.226;2022-12-10T16:52:43;0.00;99.90
1379;DHT22;683;48.738;9.226;2022-12-10T16:55:12;0.00;99.90
1379;DHT22;683;48.738;9.226;2022-12-10T16:57:40;0.00;99.90
1379;DHT22;683;48.738;9.226;2022-12-10T17:00:11;0.00;99.90
1379;DHT22;683;48.738;9.226;2022-12-10T17:02:40;0.00;99.90
1379;DHT22;683;48.738;9.226;2022-12-10T17:05:14;0.00;99.90
1379;DHT22;683;48.738;9.226;2022-12-10T17:07:41;-0.10;99.90
1379;DHT22;683;48.738;9.226;2022-12-10T17:10:10;-0.10;99.90
1379;DHT22;683;48.738;9.226;2022-12-10T17:12:39;-0.10;99.90